sensor_id;sensor_type;location;lat;lon;timestamp;P1;durP1;ratioP1;P2;durP2;ratioP2
69220;SDS011;56331;51.992;20.910;2023-06-26T00:01:04;5.40;;;3.97;;
69220;SDS011;56331;51.992;20.910;2023-06-26T00:03:33;4.75;;;3.72;;
69220;SDS011;56331;51.992;20.910;2023-06-26T00:05:59;5.03;;;3.85;;
69220;SDS011;56331;51.992;20.910;2023-06-26T00:08:26;5.33;;;4.03;;
69220;SDS011;56331;51.992;20.910;2023-06-26T00:10:54;4.35;;;3.72;;
69220;SDS011;56331;51.992;20.910;2023-06-26T00:13:21;4.80;;;3.90;;
69220;SDS011;56331;51.992;20.910;2023-06-26T00:15:49;6.50;;;4.40;;
69220;SDS011;56331;51.992;20.910;2023-06-26T00:18:16;8.08;;;4.40;;
69220;SDS011;56331;51.992;20.910;2023-06-26T00:23:23;5.83;;;4.00;;
69220;SDS011;56331;51.992;20.910;2023-06-26T00:25:50;5.83;;;4.08;;
69220;SDS011;56331;51.992;20.910;2023-06-26T00:28:16;6.37;;;4.37;;
69220;SDS011;56331;51.992;20.910;2023-06-26T00:30:43;7.05;;;4.33;;
69220;SDS011;56331;51.992;20.910;2023-06-26T00:33:10;6.47;;;4.20;;
69220;SDS011;56331;51.992;20.910;2023-06-26T00:35:36;5.47;;;4.40;;
69220;SDS011;56331;51.992;20.910;2023-06-26T00:38:02;5.47;;;4.15;;
69220;SDS011;56331;51.992;20.910;2023-06-26T00:40:29;5.83;;;3.70;;
69220;SDS011;56331;51.992;20.910;2023-06-26T00:42:55;5.17;;;3.92;;
69220;SDS011;56331;51.992;20.910;2023-06-26T00:45:24;7.20;;;4.40;;
69220;SDS011;56331;51.992;20.910;2023-06-26T00:47:51;4.33;;;3.72;;
69220;SDS011;56331;51.992;20.910;2023-06-26T00:50:18;4.80;;;4.30;;
69220;SDS011;56331;51.992;20.910;2023-06-26T00:52:44;7.05;;;4.20;;
69220;SDS011;56331;51.992;20.910;2023-06-26T00:55:12;4.80;;;3.80;;
69220;SDS011;56331;51.992;20.910;2023-06-26T00:57:39;5.28;;;4.10;;
69220;SDS011;56331;51.992;20.910;2023-06-26T01:00:05;5.45;;;4.33;;
69220;SDS011;56331;51.992;20.910;2023-06-26T01:02:33;5.72;;;4.28;;
69220;SDS011;56331;51.992;20.910;2023-06-26T01:05:01;6.72;;;3.98;;
69220;SDS011;56331;51.992;20.910;2023-06-26T01:07:30;7.00;;;4.20;;
69220;SDS011;56331;51.992;20.910;2023-06-26T01:09:58;4.37;;;3.87;;
69220;SDS011;56331;51.992;20.910;2023-06-26T01:12:25;5.65;;;4.20;;
69220;SDS011;56331;51.992;20.910;2023-06-26T01:14:51;4.83;;;4.03;;
69220;SDS011;56331;51.992;20.910;2023-06-26T01:17:18;5.03;;;3.92;;
69220;SDS011;56331;51.992;20.910;2023-06-26T01:19:46;5.92;;;4.25;;
69220;SDS011;56331;51.992;20.910;2023-06-26T01:22:16;5.03;;;3.95;;
69220;SDS011;56331;51.992;20.910;2023-06-26T01:25:02;4.78;;;3.80;;
69220;SDS011;56331;51.992;20.910;2023-06-26T01:27:45;5.33;;;4.08;;
69220;SDS011;56331;51.992;20.910;2023-06-26T01:30:13;4.30;;;3.72;;
69220;SDS011;56331;51.992;20.910;2023-06-26T01:32:40;4.70;;;3.52;;
69220;SDS011;56331;51.992;20.910;2023-06-26T01:35:07;4.97;;;4.15;;
69220;SDS011;56331;51.992;20.910;2023-06-26T01:37:35;5.70;;;3.98;;
69220;SDS011;56331;51.992;20.910;2023-06-26T01:40:02;4.25;;;3.62;;
69220;SDS011;56331;51.992;20.910;2023-06-26T01:42:30;4.42;;;4.00;;
69220;SDS011;56331;51.992;20.910;2023-06-26T01:45:10;5.62;;;4.33;;
69220;SDS011;56331;51.992;20.910;2023-06-26T01:47:33;5.53;;;4.12;;
69220;SDS011;56331;51.992;20.910;2023-06-26T01:50:03;5.22;;;4.12;;
69220;SDS011;56331;51.992;20.910;2023-06-26T01:52:41;8.00;;;4.22;;
69220;SDS011;56331;51.992;20.910;2023-06-26T01:55:33;4.50;;;3.77;;
69220;SDS011;56331;51.992;20.910;2023-06-26T01:58:07;5.50;;;4.13;;
69220;SDS011;56331;51.992;20.910;2023-06-26T02:00:35;4.72;;;3.67;;
69220;SDS011;56331;51.992;20.910;2023-06-26T02:03:03;4.17;;;3.75;;
69220;SDS011;56331;51.992;20.910;2023-06-26T02:05:30;4.67;;;3.95;;
69220;SDS011;56331;51.992;20.910;2023-06-26T02:07:57;4.42;;;3.67;;
69220;SDS011;56331;51.992;20.910;2023-06-26T02:10:24;5.55;;;3.85;;
69220;SDS011;56331;51.992;20.910;2023-06-26T02:12:50;3.90;;;3.50;;
69220;SDS011;56331;51.992;20.910;2023-06-26T02:15:20;4.95;;;4.03;;
69220;SDS011;56331;51.992;20.910;2023-06-26T02:17:48;4.20;;;3.42;;
69220;SDS011;56331;51.992;20.910;2023-06-26T02:20:14;4.87;;;3.72;;
69220;SDS011;56331;51.992;20.910;2023-06-26T02:22:41;5.55;;;3.83;;
69220;SDS011;56331;51.992;20.910;2023-06-26T02:25:14;5.03;;;3.85;;
69220;SDS011;56331;51.992;20.910;2023-06-26T02:30:05;4.97;;;3.60;;
69220;SDS011;56331;51.992;20.910;2023-06-26T02:32:32;5.37;;;3.85;;
69220;SDS011;56331;51.992;20.910;2023-06-26T02:34:58;4.85;;;4.17;;
69220;SDS011;56331;51.992;20.910;2023-06-26T02:37:25;5.60;;;4.45;;
69220;SDS011;56331;51.992;20.910;2023-06-26T02:39:51;5.87;;;4.12;;
69220;SDS011;56331;51.992;20.910;2023-06-26T02:42:17;5.00;;;4.00;;
69220;SDS011;56331;51.992;20.910;2023-06-26T02:44:44;4.58;;;3.65;;
69220;SDS011;56331;51.992;20.910;2023-06-26T02:47:10;4.42;;;3.67;;
69220;SDS011;56331;51.992;20.910;2023-06-26T02:49:37;4.85;;;3.87;;
69220;SDS011;56331;51.992;20.910;2023-06-26T02:52:03;5.03;;;4.05;;
69220;SDS011;56331;51.992;20.910;2023-06-26T02:54:30;5.62;;;4.25;;
69220;SDS011;56331;51.992;20.910;2023-06-26T02:56:56;4.20;;;3.75;;
69220;SDS011;56331;51.992;20.910;2023-06-26T02:59:23;4.37;;;3.80;;
69220;SDS011;56331;51.992;20.910;2023-06-26T03:01:49;5.10;;;4.22;;
69220;SDS011;56331;51.992;20.910;2023-06-26T03:04:16;4.92;;;3.55;;
69220;SDS011;56331;51.992;20.910;2023-06-26T03:06:44;4.35;;;3.50;;
69220;SDS011;56331;51.992;20.910;2023-06-26T03:09:10;4.17;;;3.58;;
69220;SDS011;56331;51.992;20.910;2023-06-26T03:11:36;3.98;;;3.55;;
69220;SDS011;56331;51.992;20.910;2023-06-26T03:14:03;4.87;;;3.70;;
69220;SDS011;56331;51.992;20.910;2023-06-26T03:16:29;4.25;;;3.65;;
69220;SDS011;56331;51.992;20.910;2023-06-26T03:18:57;4.25;;;3.72;;
69220;SDS011;56331;51.992;20.910;2023-06-26T03:21:23;5.28;;;3.83;;
69220;SDS011;56331;51.992;20.910;2023-06-26T03:23:50;5.40;;;4.17;;
69220;SDS011;56331;51.992;20.910;2023-06-26T03:26:16;4.22;;;3.58;;
69220;SDS011;56331;51.992;20.910;2023-06-26T03:28:42;4.35;;;3.85;;
69220;SDS011;56331;51.992;20.910;2023-06-26T03:31:09;4.87;;;3.70;;
69220;SDS011;56331;51.992;20.910;2023-06-26T03:33:37;4.22;;;3.50;;
69220;SDS011;56331;51.992;20.910;2023-06-26T03:36:04;4.17;;;3.40;;
69220;SDS011;56331;51.992;20.910;2023-06-26T03:38:31;4.60;;;3.42;;
69220;SDS011;56331;51.992;20.910;2023-06-26T03:40:58;4.28;;;3.62;;
69220;SDS011;56331;51.992;20.910;2023-06-26T03:43:25;4.08;;;3.60;;
69220;SDS011;56331;51.992;20.910;2023-06-26T03:45:51;4.37;;;3.30;;
69220;SDS011;56331;51.992;20.910;2023-06-26T03:48:17;3.98;;;3.58;;
69220;SDS011;56331;51.992;20.910;2023-06-26T03:50:44;4.30;;;3.30;;
69220;SDS011;56331;51.992;20.910;2023-06-26T03:53:11;5.70;;;3.42;;
69220;SDS011;56331;51.992;20.910;2023-06-26T03:55:37;3.40;;;3.00;;
69220;SDS011;56331;51.992;20.910;2023-06-26T03:58:04;4.97;;;3.58;;
69220;SDS011;56331;51.992;20.910;2023-06-26T04:00:31;4.80;;;3.75;;
69220;SDS011;56331;51.992;20.910;2023-06-26T04:02:57;4.08;;;3.15;;
69220;SDS011;56331;51.992;20.910;2023-06-26T04:05:25;4.00;;;3.33;;
69220;SDS011;56331;51.992;20.910;2023-06-26T04:07:51;4.12;;;3.72;;
69220;SDS011;56331;51.992;20.910;2023-06-26T04:10:18;5.47;;;3.55;;
69220;SDS011;56331;51.992;20.910;2023-06-26T04:12:47;4.80;;;3.37;;
69220;SDS011;56331;51.992;20.910;2023-06-26T04:15:14;5.75;;;3.62;;
69220;SDS011;56331;51.992;20.910;2023-06-26T04:17:43;5.35;;;3.77;;
69220;SDS011;56331;51.992;20.910;2023-06-26T04:20:09;6.08;;;3.55;;
69220;SDS011;56331;51.992;20.910;2023-06-26T04:22:36;4.62;;;3.40;;
69220;SDS011;56331;51.992;20.910;2023-06-26T04:25:03;4.53;;;3.20;;
69220;SDS011;56331;51.992;20.910;2023-06-26T04:27:30;3.95;;;3.25;;
69220;SDS011;56331;51.992;20.910;2023-06-26T04:29:56;4.72;;;3.47;;
69220;SDS011;56331;51.992;20.910;2023-06-26T04:32:23;4.08;;;3.35;;
69220;SDS011;56331;51.992;20.910;2023-06-26T04:34:50;3.95;;;3.55;;
69220;SDS011;56331;51.992;20.910;2023-06-26T04:37:16;5.12;;;3.77;;
69220;SDS011;56331;51.992;20.910;2023-06-26T04:39:43;4.20;;;3.50;;
69220;SDS011;56331;51.992;20.910;2023-06-26T04:42:10;4.47;;;3.75;;
69220;SDS011;56331;51.992;20.910;2023-06-26T04:44:37;5.30;;;4.20;;
69220;SDS011;56331;51.992;20.910;2023-06-26T04:47:04;4.60;;;3.80;;
69220;SDS011;56331;51.992;20.910;2023-06-26T04:49:30;3.92;;;3.40;;
69220;SDS011;56331;51.992;20.910;2023-06-26T04:51:57;4.33;;;3.72;;
69220;SDS011;56331;51.992;20.910;2023-06-26T04:54:25;4.87;;;3.80;;
69220;SDS011;56331;51.992;20.910;2023-06-26T04:56:52;4.67;;;3.50;;
69220;SDS011;56331;51.992;20.910;2023-06-26T04:59:18;5.33;;;3.80;;
69220;SDS011;56331;51.992;20.910;2023-06-26T05:01:45;4.60;;;3.85;;
69220;SDS011;56331;51.992;20.910;2023-06-26T05:04:14;4.45;;;3.75;;
69220;SDS011;56331;51.992;20.910;2023-06-26T05:06:41;5.17;;;3.80;;
69220;SDS011;56331;51.992;20.910;2023-06-26T05:09:08;4.95;;;3.83;;
69220;SDS011;56331;51.992;20.910;2023-06-26T05:11:34;4.28;;;3.77;;
69220;SDS011;56331;51.992;20.910;2023-06-26T05:14:01;5.87;;;4.15;;
69220;SDS011;56331;51.992;20.910;2023-06-26T05:16:27;5.00;;;3.87;;
69220;SDS011;56331;51.992;20.910;2023-06-26T05:18:54;4.90;;;3.80;;
69220;SDS011;56331;51.992;20.910;2023-06-26T05:21:20;5.78;;;4.03;;
69220;SDS011;56331;51.992;20.910;2023-06-26T05:23:47;4.85;;;3.92;;
69220;SDS011;56331;51.992;20.910;2023-06-26T05:26:15;5.22;;;4.20;;
69220;SDS011;56331;51.992;20.910;2023-06-26T05:28:41;6.40;;;4.22;;
69220;SDS011;56331;51.992;20.910;2023-06-26T05:31:26;5.37;;;4.40;;
69220;SDS011;56331;51.992;20.910;2023-06-26T05:33:53;6.10;;;4.42;;
69220;SDS011;56331;51.992;20.910;2023-06-26T05:36:21;5.28;;;4.05;;
69220;SDS011;56331;51.992;20.910;2023-06-26T05:38:50;5.55;;;4.22;;
69220;SDS011;56331;51.992;20.910;2023-06-26T05:41:17;5.87;;;4.55;;
69220;SDS011;56331;51.992;20.910;2023-06-26T05:43:45;5.50;;;4.62;;
69220;SDS011;56331;51.992;20.910;2023-06-26T05:46:12;7.42;;;4.75;;
69220;SDS011;56331;51.992;20.910;2023-06-26T05:48:38;6.45;;;4.70;;
69220;SDS011;56331;51.992;20.910;2023-06-26T05:51:05;7.37;;;4.45;;
69220;SDS011;56331;51.992;20.910;2023-06-26T05:53:32;5.37;;;4.33;;
69220;SDS011;56331;51.992;20.910;2023-06-26T05:55:59;6.50;;;4.47;;
69220;SDS011;56331;51.992;20.910;2023-06-26T05:58:26;5.72;;;4.40;;
69220;SDS011;56331;51.992;20.910;2023-06-26T06:00:53;6.83;;;4.42;;
69220;SDS011;56331;51.992;20.910;2023-06-26T06:03:20;9.43;;;4.55;;
69220;SDS011;56331;51.992;20.910;2023-06-26T06:05:46;5.55;;;4.50;;
69220;SDS011;56331;51.992;20.910;2023-06-26T06:08:13;6.12;;;4.50;;
69220;SDS011;56331;51.992;20.910;2023-06-26T06:10:39;6.30;;;4.22;;
69220;SDS011;56331;51.992;20.910;2023-06-26T06:13:06;6.10;;;4.30;;
69220;SDS011;56331;51.992;20.910;2023-06-26T06:15:32;6.25;;;4.45;;
69220;SDS011;56331;51.992;20.910;2023-06-26T06:17:59;5.47;;;4.50;;
69220;SDS011;56331;51.992;20.910;2023-06-26T06:20:25;7.28;;;4.42;;
69220;SDS011;56331;51.992;20.910;2023-06-26T06:22:54;6.03;;;4.55;;
69220;SDS011;56331;51.992;20.910;2023-06-26T06:25:20;5.58;;;4.47;;
69220;SDS011;56331;51.992;20.910;2023-06-26T06:27:46;5.85;;;4.10;;
69220;SDS011;56331;51.992;20.910;2023-06-26T06:30:13;5.60;;;4.40;;
69220;SDS011;56331;51.992;20.910;2023-06-26T06:32:40;6.83;;;4.65;;
69220;SDS011;56331;51.992;20.910;2023-06-26T06:35:06;5.83;;;4.20;;
69220;SDS011;56331;51.992;20.910;2023-06-26T06:37:38;5.72;;;4.45;;
69220;SDS011;56331;51.992;20.910;2023-06-26T06:42:31;4.72;;;3.95;;
69220;SDS011;56331;51.992;20.910;2023-06-26T06:44:59;6.28;;;4.78;;
69220;SDS011;56331;51.992;20.910;2023-06-26T06:47:26;4.40;;;4.00;;
69220;SDS011;56331;51.992;20.910;2023-06-26T06:49:52;5.25;;;4.20;;
69220;SDS011;56331;51.992;20.910;2023-06-26T06:52:19;4.78;;;4.05;;
69220;SDS011;56331;51.992;20.910;2023-06-26T06:54:53;7.45;;;4.10;;
69220;SDS011;56331;51.992;20.910;2023-06-26T06:57:21;6.20;;;4.22;;
69220;SDS011;56331;51.992;20.910;2023-06-26T06:59:48;5.67;;;4.45;;
69220;SDS011;56331;51.992;20.910;2023-06-26T07:02:15;5.37;;;4.17;;
69220;SDS011;56331;51.992;20.910;2023-06-26T07:04:43;5.78;;;4.25;;
69220;SDS011;56331;51.992;20.910;2023-06-26T07:07:09;6.60;;;4.22;;
69220;SDS011;56331;51.992;20.910;2023-06-26T07:09:36;6.78;;;4.15;;
69220;SDS011;56331;51.992;20.910;2023-06-26T07:12:03;7.70;;;3.98;;
69220;SDS011;56331;51.992;20.910;2023-06-26T07:14:29;8.33;;;4.62;;
69220;SDS011;56331;51.992;20.910;2023-06-26T07:16:56;6.00;;;4.20;;
69220;SDS011;56331;51.992;20.910;2023-06-26T07:19:23;6.37;;;4.20;;
69220;SDS011;56331;51.992;20.910;2023-06-26T07:21:49;14.00;;;4.20;;
69220;SDS011;56331;51.992;20.910;2023-06-26T07:24:16;12.90;;;4.83;;
69220;SDS011;56331;51.992;20.910;2023-06-26T07:26:42;9.53;;;4.50;;
69220;SDS011;56331;51.992;20.910;2023-06-26T07:29:09;7.17;;;4.53;;
69220;SDS011;56331;51.992;20.910;2023-06-26T07:31:35;10.40;;;4.60;;
69220;SDS011;56331;51.992;20.910;2023-06-26T07:34:01;12.35;;;4.47;;
69220;SDS011;56331;51.992;20.910;2023-06-26T07:36:28;7.47;;;4.67;;
69220;SDS011;56331;51.992;20.910;2023-06-26T07:38:54;11.73;;;4.42;;
69220;SDS011;56331;51.992;20.910;2023-06-26T07:41:21;7.65;;;4.53;;
69220;SDS011;56331;51.992;20.910;2023-06-26T07:43:47;6.70;;;4.05;;
69220;SDS011;56331;51.992;20.910;2023-06-26T07:46:14;13.55;;;4.12;;
69220;SDS011;56331;51.992;20.910;2023-06-26T07:48:40;9.05;;;4.83;;
69220;SDS011;56331;51.992;20.910;2023-06-26T07:51:07;8.18;;;4.40;;
69220;SDS011;56331;51.992;20.910;2023-06-26T07:53:33;9.23;;;4.37;;
69220;SDS011;56331;51.992;20.910;2023-06-26T07:56:00;11.90;;;4.60;;
69220;SDS011;56331;51.992;20.910;2023-06-26T07:58:27;11.08;;;4.50;;
69220;SDS011;56331;51.992;20.910;2023-06-26T08:00:53;6.83;;;4.03;;
69220;SDS011;56331;51.992;20.910;2023-06-26T08:03:20;6.75;;;4.10;;
69220;SDS011;56331;51.992;20.910;2023-06-26T08:05:50;8.23;;;4.10;;
69220;SDS011;56331;51.992;20.910;2023-06-26T08:08:21;6.08;;;3.98;;
69220;SDS011;56331;51.992;20.910;2023-06-26T08:10:47;6.35;;;4.00;;
69220;SDS011;56331;51.992;20.910;2023-06-26T08:13:14;10.88;;;4.17;;
69220;SDS011;56331;51.992;20.910;2023-06-26T08:15:40;7.42;;;4.20;;
69220;SDS011;56331;51.992;20.910;2023-06-26T08:18:07;7.67;;;4.05;;
69220;SDS011;56331;51.992;20.910;2023-06-26T08:20:33;7.78;;;4.22;;
69220;SDS011;56331;51.992;20.910;2023-06-26T08:23:03;7.97;;;4.45;;
69220;SDS011;56331;51.992;20.910;2023-06-26T08:25:31;6.75;;;4.40;;
69220;SDS011;56331;51.992;20.910;2023-06-26T08:27:57;7.08;;;3.75;;
69220;SDS011;56331;51.992;20.910;2023-06-26T08:30:24;8.35;;;4.47;;
69220;SDS011;56331;51.992;20.910;2023-06-26T08:32:52;8.53;;;4.58;;
69220;SDS011;56331;51.992;20.910;2023-06-26T08:35:19;10.32;;;4.47;;
69220;SDS011;56331;51.992;20.910;2023-06-26T08:37:45;11.28;;;4.70;;
69220;SDS011;56331;51.992;20.910;2023-06-26T08:40:12;8.65;;;4.22;;
69220;SDS011;56331;51.992;20.910;2023-06-26T08:42:40;7.62;;;4.00;;
69220;SDS011;56331;51.992;20.910;2023-06-26T08:57:51;9.23;;;4.25;;
69220;SDS011;56331;51.992;20.910;2023-06-26T09:00:19;7.15;;;4.20;;
69220;SDS011;56331;51.992;20.910;2023-06-26T09:02:46;15.25;;;4.62;;
69220;SDS011;56331;51.992;20.910;2023-06-26T09:05:13;8.30;;;4.45;;
69220;SDS011;56331;51.992;20.910;2023-06-26T09:07:39;7.42;;;4.00;;
69220;SDS011;56331;51.992;20.910;2023-06-26T09:10:06;8.68;;;4.92;;
69220;SDS011;56331;51.992;20.910;2023-06-26T09:12:33;7.03;;;4.37;;
69220;SDS011;56331;51.992;20.910;2023-06-26T09:15:01;8.85;;;3.85;;
69220;SDS011;56331;51.992;20.910;2023-06-26T09:17:29;6.53;;;4.12;;
69220;SDS011;56331;51.992;20.910;2023-06-26T09:19:56;9.00;;;4.55;;
69220;SDS011;56331;51.992;20.910;2023-06-26T09:22:23;8.30;;;4.92;;
69220;SDS011;56331;51.992;20.910;2023-06-26T09:24:49;9.10;;;5.25;;
69220;SDS011;56331;51.992;20.910;2023-06-26T09:27:17;9.83;;;5.47;;
69220;SDS011;56331;51.992;20.910;2023-06-26T09:29:47;7.75;;;5.20;;
69220;SDS011;56331;51.992;20.910;2023-06-26T09:32:14;6.87;;;4.90;;
69220;SDS011;56331;51.992;20.910;2023-06-26T09:34:41;8.55;;;4.70;;
69220;SDS011;56331;51.992;20.910;2023-06-26T09:37:13;7.47;;;4.72;;
69220;SDS011;56331;51.992;20.910;2023-06-26T09:39:40;7.08;;;4.65;;
69220;SDS011;56331;51.992;20.910;2023-06-26T09:42:06;5.70;;;4.30;;
69220;SDS011;56331;51.992;20.910;2023-06-26T09:44:35;5.05;;;3.80;;
69220;SDS011;56331;51.992;20.910;2023-06-26T09:47:02;6.15;;;4.62;;
69220;SDS011;56331;51.992;20.910;2023-06-26T09:49:29;7.72;;;4.60;;
69220;SDS011;56331;51.992;20.910;2023-06-26T09:51:59;7.70;;;4.20;;
69220;SDS011;56331;51.992;20.910;2023-06-26T09:54:28;7.53;;;4.20;;
69220;SDS011;56331;51.992;20.910;2023-06-26T09:56:56;4.78;;;4.03;;
69220;SDS011;56331;51.992;20.910;2023-06-26T09:59:33;5.03;;;3.90;;
69220;SDS011;56331;51.992;20.910;2023-06-26T10:02:00;6.62;;;3.98;;
69220;SDS011;56331;51.992;20.910;2023-06-26T10:04:27;6.17;;;3.62;;
69220;SDS011;56331;51.992;20.910;2023-06-26T10:06:56;6.65;;;4.05;;
69220;SDS011;56331;51.992;20.910;2023-06-26T10:09:27;4.80;;;4.03;;
69220;SDS011;56331;51.992;20.910;2023-06-26T10:11:58;5.35;;;3.92;;
69220;SDS011;56331;51.992;20.910;2023-06-26T10:14:37;6.15;;;3.72;;
69220;SDS011;56331;51.992;20.910;2023-06-26T10:17:03;5.60;;;3.90;;
69220;SDS011;56331;51.992;20.910;2023-06-26T10:19:32;8.95;;;4.05;;
69220;SDS011;56331;51.992;20.910;2023-06-26T10:21:59;5.80;;;4.12;;
69220;SDS011;56331;51.992;20.910;2023-06-26T10:24:32;7.03;;;3.67;;
69220;SDS011;56331;51.992;20.910;2023-06-26T10:27:07;8.48;;;3.72;;
69220;SDS011;56331;51.992;20.910;2023-06-26T10:29:48;7.62;;;4.03;;
69220;SDS011;56331;51.992;20.910;2023-06-26T10:32:13;8.68;;;3.77;;
69220;SDS011;56331;51.992;20.910;2023-06-26T10:34:41;6.05;;;4.00;;
69220;SDS011;56331;51.992;20.910;2023-06-26T10:37:09;7.78;;;4.55;;
69220;SDS011;56331;51.992;20.910;2023-06-26T10:39:51;7.78;;;3.80;;
69220;SDS011;56331;51.992;20.910;2023-06-26T10:42:28;5.53;;;4.28;;
69220;SDS011;56331;51.992;20.910;2023-06-26T10:44:56;6.72;;;4.05;;
69220;SDS011;56331;51.992;20.910;2023-06-26T10:47:32;10.13;;;4.30;;
69220;SDS011;56331;51.992;20.910;2023-06-26T10:50:20;6.60;;;3.80;;
69220;SDS011;56331;51.992;20.910;2023-06-26T10:55:47;7.92;;;4.12;;
69220;SDS011;56331;51.992;20.910;2023-06-26T11:01:17;7.50;;;4.50;;
69220;SDS011;56331;51.992;20.910;2023-06-26T11:06:18;8.25;;;3.62;;
69220;SDS011;56331;51.992;20.910;2023-06-26T11:08:47;8.63;;;3.22;;
69220;SDS011;56331;51.992;20.910;2023-06-26T11:11:22;10.03;;;4.03;;
69220;SDS011;56331;51.992;20.910;2023-06-26T11:14:09;6.62;;;3.77;;
69220;SDS011;56331;51.992;20.910;2023-06-26T11:16:37;7.22;;;4.50;;
69220;SDS011;56331;51.992;20.910;2023-06-26T11:19:04;6.40;;;4.28;;
69220;SDS011;56331;51.992;20.910;2023-06-26T11:21:33;6.90;;;4.30;;
69220;SDS011;56331;51.992;20.910;2023-06-26T11:24:00;8.78;;;3.92;;
69220;SDS011;56331;51.992;20.910;2023-06-26T11:26:28;6.47;;;3.95;;
69220;SDS011;56331;51.992;20.910;2023-06-26T11:28:55;5.10;;;3.45;;
69220;SDS011;56331;51.992;20.910;2023-06-26T11:31:32;6.72;;;3.30;;
69220;SDS011;56331;51.992;20.910;2023-06-26T11:34:00;4.70;;;3.20;;
69220;SDS011;56331;51.992;20.910;2023-06-26T11:38:58;4.37;;;3.10;;
69220;SDS011;56331;51.992;20.910;2023-06-26T11:41:27;3.72;;;3.00;;
69220;SDS011;56331;51.992;20.910;2023-06-26T11:43:56;6.35;;;3.40;;
69220;SDS011;56331;51.992;20.910;2023-06-26T11:46:28;3.52;;;2.90;;
69220;SDS011;56331;51.992;20.910;2023-06-26T11:48:55;5.70;;;3.60;;
69220;SDS011;56331;51.992;20.910;2023-06-26T11:51:21;4.12;;;3.00;;
69220;SDS011;56331;51.992;20.910;2023-06-26T11:53:49;5.37;;;3.17;;
69220;SDS011;56331;51.992;20.910;2023-06-26T11:56:16;6.05;;;3.50;;
69220;SDS011;56331;51.992;20.910;2023-06-26T11:59:00;4.70;;;3.15;;
69220;SDS011;56331;51.992;20.910;2023-06-26T12:01:36;3.45;;;2.87;;
69220;SDS011;56331;51.992;20.910;2023-06-26T12:04:10;5.28;;;3.20;;
69220;SDS011;56331;51.992;20.910;2023-06-26T12:06:39;6.97;;;3.00;;
69220;SDS011;56331;51.992;20.910;2023-06-26T12:09:08;4.83;;;3.43;;
69220;SDS011;56331;51.992;20.910;2023-06-26T12:11:37;5.33;;;3.22;;
69220;SDS011;56331;51.992;20.910;2023-06-26T12:14:06;3.67;;;2.75;;
69220;SDS011;56331;51.992;20.910;2023-06-26T12:16:33;4.25;;;3.15;;
69220;SDS011;56331;51.992;20.910;2023-06-26T12:19:06;4.67;;;3.25;;
69220;SDS011;56331;51.992;20.910;2023-06-26T12:24:08;5.75;;;3.08;;
69220;SDS011;56331;51.992;20.910;2023-06-26T12:26:36;3.40;;;2.90;;
69220;SDS011;56331;51.992;20.910;2023-06-26T12:29:05;5.03;;;3.02;;
69220;SDS011;56331;51.992;20.910;2023-06-26T12:31:33;5.05;;;2.87;;
69220;SDS011;56331;51.992;20.910;2023-06-26T12:34:00;5.00;;;3.52;;
69220;SDS011;56331;51.992;20.910;2023-06-26T12:36:27;4.83;;;3.40;;
69220;SDS011;56331;51.992;20.910;2023-06-26T12:38:54;4.47;;;2.50;;
69220;SDS011;56331;51.992;20.910;2023-06-26T12:41:23;4.00;;;3.30;;
69220;SDS011;56331;51.992;20.910;2023-06-26T12:43:57;5.03;;;3.47;;
69220;SDS011;56331;51.992;20.910;2023-06-26T12:46:34;5.15;;;3.35;;
69220;SDS011;56331;51.992;20.910;2023-06-26T12:49:02;5.28;;;3.40;;
69220;SDS011;56331;51.992;20.910;2023-06-26T12:51:29;8.08;;;3.08;;
69220;SDS011;56331;51.992;20.910;2023-06-26T12:53:55;4.62;;;3.17;;
69220;SDS011;56331;51.992;20.910;2023-06-26T12:56:21;4.75;;;3.33;;
69220;SDS011;56331;51.992;20.910;2023-06-26T12:58:48;3.58;;;2.75;;
69220;SDS011;56331;51.992;20.910;2023-06-26T13:01:14;6.72;;;3.40;;
69220;SDS011;56331;51.992;20.910;2023-06-26T13:03:41;4.70;;;3.58;;
69220;SDS011;56331;51.992;20.910;2023-06-26T13:06:09;4.40;;;3.05;;
69220;SDS011;56331;51.992;20.910;2023-06-26T13:08:35;6.78;;;3.08;;
69220;SDS011;56331;51.992;20.910;2023-06-26T13:11:03;4.92;;;3.25;;
69220;SDS011;56331;51.992;20.910;2023-06-26T13:13:29;4.10;;;2.98;;
69220;SDS011;56331;51.992;20.910;2023-06-26T13:15:55;5.87;;;3.47;;
69220;SDS011;56331;51.992;20.910;2023-06-26T13:18:22;4.65;;;3.30;;
69220;SDS011;56331;51.992;20.910;2023-06-26T13:20:48;4.10;;;2.98;;
69220;SDS011;56331;51.992;20.910;2023-06-26T13:23:15;6.15;;;3.42;;
69220;SDS011;56331;51.992;20.910;2023-06-26T13:25:42;4.75;;;3.42;;
69220;SDS011;56331;51.992;20.910;2023-06-26T13:28:09;5.10;;;3.62;;
69220;SDS011;56331;51.992;20.910;2023-06-26T13:30:35;4.05;;;3.40;;
69220;SDS011;56331;51.992;20.910;2023-06-26T13:33:02;4.37;;;3.25;;
69220;SDS011;56331;51.992;20.910;2023-06-26T13:35:28;5.10;;;3.10;;
69220;SDS011;56331;51.992;20.910;2023-06-26T13:37:56;5.47;;;3.40;;
69220;SDS011;56331;51.992;20.910;2023-06-26T13:40:22;5.30;;;3.10;;
69220;SDS011;56331;51.992;20.910;2023-06-26T13:42:48;3.90;;;2.95;;
69220;SDS011;56331;51.992;20.910;2023-06-26T13:45:15;4.25;;;3.00;;
69220;SDS011;56331;51.992;20.910;2023-06-26T13:47:41;5.15;;;3.08;;
69220;SDS011;56331;51.992;20.910;2023-06-26T13:50:09;4.17;;;2.95;;
69220;SDS011;56331;51.992;20.910;2023-06-26T13:52:36;4.92;;;3.10;;
69220;SDS011;56331;51.992;20.910;2023-06-26T13:55:02;4.08;;;3.12;;
69220;SDS011;56331;51.992;20.910;2023-06-26T13:57:32;4.20;;;3.35;;
69220;SDS011;56331;51.992;20.910;2023-06-26T13:59:59;3.95;;;2.87;;
69220;SDS011;56331;51.992;20.910;2023-06-26T14:02:25;4.12;;;3.20;;
69220;SDS011;56331;51.992;20.910;2023-06-26T14:04:53;5.70;;;3.20;;
69220;SDS011;56331;51.992;20.910;2023-06-26T14:07:19;4.95;;;3.10;;
69220;SDS011;56331;51.992;20.910;2023-06-26T14:09:46;3.98;;;3.00;;
69220;SDS011;56331;51.992;20.910;2023-06-26T14:12:12;3.35;;;2.98;;
69220;SDS011;56331;51.992;20.910;2023-06-26T14:14:39;5.03;;;3.17;;
69220;SDS011;56331;51.992;20.910;2023-06-26T14:17:05;4.53;;;3.30;;
69220;SDS011;56331;51.992;20.910;2023-06-26T14:19:33;3.85;;;3.27;;
69220;SDS011;56331;51.992;20.910;2023-06-26T14:21:59;5.03;;;2.95;;
69220;SDS011;56331;51.992;20.910;2023-06-26T14:24:27;3.95;;;2.87;;
69220;SDS011;56331;51.992;20.910;2023-06-26T14:26:53;5.08;;;2.87;;
69220;SDS011;56331;51.992;20.910;2023-06-26T14:29:20;5.22;;;3.17;;
69220;SDS011;56331;51.992;20.910;2023-06-26T14:31:47;3.50;;;3.10;;
69220;SDS011;56331;51.992;20.910;2023-06-26T14:34:14;4.67;;;3.10;;
69220;SDS011;56331;51.992;20.910;2023-06-26T14:36:40;3.15;;;2.77;;
69220;SDS011;56331;51.992;20.910;2023-06-26T14:39:07;5.55;;;3.00;;
69220;SDS011;56331;51.992;20.910;2023-06-26T14:41:38;3.72;;;3.00;;
69220;SDS011;56331;51.992;20.910;2023-06-26T14:44:07;4.53;;;2.80;;
69220;SDS011;56331;51.992;20.910;2023-06-26T14:46:35;3.65;;;2.87;;
69220;SDS011;56331;51.992;20.910;2023-06-26T14:49:02;5.03;;;2.87;;
69220;SDS011;56331;51.992;20.910;2023-06-26T14:51:29;5.25;;;3.15;;
69220;SDS011;56331;51.992;20.910;2023-06-26T14:53:55;4.83;;;3.08;;
69220;SDS011;56331;51.992;20.910;2023-06-26T14:56:22;5.03;;;3.00;;
69220;SDS011;56331;51.992;20.910;2023-06-26T14:58:49;4.92;;;3.10;;
69220;SDS011;56331;51.992;20.910;2023-06-26T15:01:18;4.37;;;3.47;;
69220;SDS011;56331;51.992;20.910;2023-06-26T15:03:48;5.80;;;3.42;;
69220;SDS011;56331;51.992;20.910;2023-06-26T15:06:16;5.45;;;3.37;;
69220;SDS011;56331;51.992;20.910;2023-06-26T15:23:23;4.97;;;3.22;;
69220;SDS011;56331;51.992;20.910;2023-06-26T15:25:52;4.65;;;2.90;;